sensor_id;sensor_type;location;lat;lon;timestamp;P1;durP1;ratioP1;P2;durP2;ratioP2
32932;SDS011;19444;50.518;10.870;2023-07-20T00:00:45;3.65;;;2.70;;
32932;SDS011;19444;50.518;10.870;2023-07-20T00:03:42;4.30;;;2.63;;
32932;SDS011;19444;50.518;10.870;2023-07-20T00:06:39;3.05;;;2.47;;
32932;SDS011;19444;50.518;10.870;2023-07-20T00:09:36;5.22;;;3.00;;
32932;SDS011;19444;50.518;10.870;2023-07-20T00:12:33;4.93;;;2.40;;
32932;SDS011;19444;50.518;10.870;2023-07-20T00:15:30;3.28;;;2.70;;
32932;SDS011;19444;50.518;10.870;2023-07-20T00:18:27;2.60;;;2.10;;
32932;SDS011;19444;50.518;10.870;2023-07-20T00:21:25;4.63;;;2.67;;
32932;SDS011;19444;50.518;10.870;2023-07-20T00:24:22;2.67;;;2.30;;
32932;SDS011;19444;50.518;10.870;2023-07-20T00:27:19;4.30;;;2.75;;
32932;SDS011;19444;50.518;10.870;2023-07-20T00:30:16;4.05;;;2.50;;
32932;SDS011;19444;50.518;10.870;2023-07-20T00:33:16;3.75;;;2.70;;
32932;SDS011;19444;50.518;10.870;2023-07-20T00:36:14;3.72;;;2.78;;
32932;SDS011;19444;50.518;10.870;2023-07-20T00:39:11;3.85;;;2.80;;
32932;SDS011;19444;50.518;10.870;2023-07-20T00:42:08;5.22;;;3.13;;
32932;SDS011;19444;50.518;10.870;2023-07-20T00:45:05;4.10;;;2.45;;
32932;SDS011;19444;50.518;10.870;2023-07-20T00:48:03;5.50;;;2.55;;
32932;SDS011;19444;50.518;10.870;2023-07-20T00:51:02;4.33;;;2.60;;
32932;SDS011;19444;50.518;10.870;2023-07-20T00:54:00;2.85;;;2.22;;
32932;SDS011;19444;50.518;10.870;2023-07-20T00:56:57;4.78;;;2.60;;
32932;SDS011;19444;50.518;10.870;2023-07-20T00:59:55;3.13;;;2.72;;
32932;SDS011;19444;50.518;10.870;2023-07-20T01:02:52;4.65;;;2.47;;
32932;SDS011;19444;50.518;10.870;2023-07-20T01:09:47;3.47;;;2.40;;
32932;SDS011;19444;50.518;10.870;2023-07-20T01:13:07;2.90;;;2.40;;
32932;SDS011;19444;50.518;10.870;2023-07-20T01:16:05;3.20;;;2.45;;
32932;SDS011;19444;50.518;10.870;2023-07-20T01:19:02;3.80;;;2.10;;
32932;SDS011;19444;50.518;10.870;2023-07-20T01:22:02;3.85;;;2.42;;
32932;SDS011;19444;50.518;10.870;2023-07-20T01:29:05;3.30;;;2.70;;
32932;SDS011;19444;50.518;10.870;2023-07-20T01:32:18;4.50;;;2.40;;
32932;SDS011;19444;50.518;10.870;2023-07-20T01:35:19;3.42;;;2.50;;
32932;SDS011;19444;50.518;10.870;2023-07-20T01:38:20;2.90;;;2.28;;
32932;SDS011;19444;50.518;10.870;2023-07-20T01:41:19;2.85;;;2.40;;
32932;SDS011;19444;50.518;10.870;2023-07-20T01:44:17;2.92;;;2.47;;
32932;SDS011;19444;50.518;10.870;2023-07-20T01:47:14;3.65;;;2.70;;
32932;SDS011;19444;50.518;10.870;2023-07-20T01:50:11;3.75;;;2.55;;
32932;SDS011;19444;50.518;10.870;2023-07-20T01:53:08;4.07;;;2.70;;
32932;SDS011;19444;50.518;10.870;2023-07-20T01:56:05;3.42;;;2.10;;
32932;SDS011;19444;50.518;10.870;2023-07-20T01:59:02;5.80;;;2.83;;
32932;SDS011;19444;50.518;10.870;2023-07-20T02:01:58;4.43;;;2.65;;
32932;SDS011;19444;50.518;10.870;2023-07-20T02:04:57;3.08;;;2.28;;
32932;SDS011;19444;50.518;10.870;2023-07-20T02:07:54;2.60;;;2.40;;
32932;SDS011;19444;50.518;10.870;2023-07-20T02:10:51;3.72;;;2.80;;
32932;SDS011;19444;50.518;10.870;2023-07-20T02:13:48;3.92;;;3.00;;
32932;SDS011;19444;50.518;10.870;2023-07-20T02:16:45;5.47;;;2.60;;
32932;SDS011;19444;50.518;10.870;2023-07-20T02:19:42;3.58;;;2.90;;
32932;SDS011;19444;50.518;10.870;2023-07-20T02:22:39;3.95;;;2.60;;
32932;SDS011;19444;50.518;10.870;2023-07-20T02:25:36;2.70;;;2.40;;
32932;SDS011;19444;50.518;10.870;2023-07-20T02:28:34;6.63;;;2.45;;
32932;SDS011;19444;50.518;10.870;2023-07-20T02:31:31;3.13;;;2.72;;
32932;SDS011;19444;50.518;10.870;2023-07-20T02:34:28;3.80;;;2.40;;
32932;SDS011;19444;50.518;10.870;2023-07-20T02:37:25;4.43;;;2.35;;
32932;SDS011;19444;50.518;10.870;2023-07-20T02:40:22;4.13;;;2.83;;
32932;SDS011;19444;50.518;10.870;2023-07-20T02:43:19;3.33;;;2.85;;
32932;SDS011;19444;50.518;10.870;2023-07-20T02:46:16;3.80;;;2.80;;
32932;SDS011;19444;50.518;10.870;2023-07-20T02:49:13;6.00;;;2.75;;
32932;SDS011;19444;50.518;10.870;2023-07-20T02:52:09;6.53;;;2.88;;
32932;SDS011;19444;50.518;10.870;2023-07-20T02:55:07;3.20;;;2.65;;
32932;SDS011;19444;50.518;10.870;2023-07-20T02:58:04;3.42;;;2.65;;
32932;SDS011;19444;50.518;10.870;2023-07-20T03:01:01;4.55;;;2.72;;
32932;SDS011;19444;50.518;10.870;2023-07-20T03:03:58;5.72;;;3.30;;
32932;SDS011;19444;50.518;10.870;2023-07-20T03:06:55;5.43;;;3.15;;
32932;SDS011;19444;50.518;10.870;2023-07-20T03:09:52;3.15;;;2.85;;
32932;SDS011;19444;50.518;10.870;2023-07-20T03:12:49;4.72;;;3.08;;
32932;SDS011;19444;50.518;10.870;2023-07-20T03:15:46;4.65;;;3.08;;
32932;SDS011;19444;50.518;10.870;2023-07-20T03:18:43;4.40;;;2.90;;
32932;SDS011;19444;50.518;10.870;2023-07-20T03:21:40;4.53;;;3.30;;
32932;SDS011;19444;50.518;10.870;2023-07-20T03:24:37;3.10;;;2.60;;
32932;SDS011;19444;50.518;10.870;2023-07-20T03:27:34;4.05;;;3.22;;
32932;SDS011;19444;50.518;10.870;2023-07-20T03:30:31;5.88;;;2.88;;
32932;SDS011;19444;50.518;10.870;2023-07-20T03:33:28;5.80;;;3.35;;
32932;SDS011;19444;50.518;10.870;2023-07-20T03:36:26;5.43;;;3.08;;
32932;SDS011;19444;50.518;10.870;2023-07-20T03:39:23;3.08;;;2.70;;
32932;SDS011;19444;50.518;10.870;2023-07-20T03:42:20;4.70;;;2.95;;
32932;SDS011;19444;50.518;10.870;2023-07-20T03:45:17;3.97;;;2.90;;
32932;SDS011;19444;50.518;10.870;2023-07-20T03:48:18;2.92;;;2.63;;
32932;SDS011;19444;50.518;10.870;2023-07-20T03:51:20;4.47;;;3.80;;
32932;SDS011;19444;50.518;10.870;2023-07-20T03:54:17;4.63;;;2.88;;
32932;SDS011;19444;50.518;10.870;2023-07-20T03:57:15;5.68;;;3.20;;
32932;SDS011;19444;50.518;10.870;2023-07-20T04:00:12;3.22;;;2.72;;
32932;SDS011;19444;50.518;10.870;2023-07-20T04:03:10;3.72;;;3.30;;
32932;SDS011;19444;50.518;10.870;2023-07-20T04:06:08;4.82;;;3.60;;
32932;SDS011;19444;50.518;10.870;2023-07-20T04:09:05;5.45;;;3.90;;
32932;SDS011;19444;50.518;10.870;2023-07-20T04:12:02;4.85;;;3.40;;
32932;SDS011;19444;50.518;10.870;2023-07-20T04:14:59;5.35;;;2.97;;
32932;SDS011;19444;50.518;10.870;2023-07-20T04:17:57;5.03;;;3.60;;
32932;SDS011;19444;50.518;10.870;2023-07-20T04:20:54;4.03;;;3.53;;
32932;SDS011;19444;50.518;10.870;2023-07-20T04:23:51;4.07;;;3.10;;
32932;SDS011;19444;50.518;10.870;2023-07-20T04:26:47;3.92;;;3.38;;
32932;SDS011;19444;50.518;10.870;2023-07-20T04:29:44;3.90;;;2.88;;
32932;SDS011;19444;50.518;10.870;2023-07-20T04:32:41;5.20;;;2.80;;
32932;SDS011;19444;50.518;10.870;2023-07-20T04:38:50;4.68;;;3.20;;
32932;SDS011;19444;50.518;10.870;2023-07-20T04:41:47;3.50;;;3.20;;
32932;SDS011;19444;50.518;10.870;2023-07-20T04:44:44;4.78;;;3.38;;
32932;SDS011;19444;50.518;10.870;2023-07-20T04:47:41;4.13;;;3.00;;
32932;SDS011;19444;50.518;10.870;2023-07-20T04:50:40;4.32;;;3.63;;
32932;SDS011;19444;50.518;10.870;2023-07-20T04:53:37;4.85;;;3.85;;
32932;SDS011;19444;50.518;10.870;2023-07-20T04:56:34;4.28;;;3.38;;
32932;SDS011;19444;50.518;10.870;2023-07-20T04:59:32;4.05;;;3.65;;
32932;SDS011;19444;50.518;10.870;2023-07-20T05:02:29;4.03;;;3.20;;
32932;SDS011;19444;50.518;10.870;2023-07-20T05:05:26;4.05;;;2.85;;
32932;SDS011;19444;50.518;10.870;2023-07-20T05:08:23;4.38;;;3.38;;
32932;SDS011;19444;50.518;10.870;2023-07-20T05:11:20;3.78;;;3.40;;
32932;SDS011;19444;50.518;10.870;2023-07-20T05:14:17;4.82;;;3.38;;
32932;SDS011;19444;50.518;10.870;2023-07-20T05:17:14;4.05;;;3.65;;
32932;SDS011;19444;50.518;10.870;2023-07-20T05:20:11;3.45;;;3.13;;
32932;SDS011;19444;50.518;10.870;2023-07-20T05:23:10;4.00;;;3.30;;
32932;SDS011;19444;50.518;10.870;2023-07-20T05:26:07;4.85;;;3.75;;
32932;SDS011;19444;50.518;10.870;2023-07-20T05:29:05;4.10;;;3.35;;
32932;SDS011;19444;50.518;10.870;2023-07-20T05:32:02;4.25;;;3.85;;
32932;SDS011;19444;50.518;10.870;2023-07-20T05:34:59;4.35;;;3.95;;
32932;SDS011;19444;50.518;10.870;2023-07-20T05:37:56;4.47;;;3.75;;
32932;SDS011;19444;50.518;10.870;2023-07-20T05:40:58;5.65;;;4.43;;
32932;SDS011;19444;50.518;10.870;2023-07-20T05:43:58;6.28;;;4.60;;
32932;SDS011;19444;50.518;10.870;2023-07-20T05:46:55;4.95;;;4.45;;
32932;SDS011;19444;50.518;10.870;2023-07-20T05:49:53;6.00;;;4.25;;
32932;SDS011;19444;50.518;10.870;2023-07-20T05:52:53;4.30;;;3.90;;
32932;SDS011;19444;50.518;10.870;2023-07-20T05:55:54;5.10;;;4.40;;
32932;SDS011;19444;50.518;10.870;2023-07-20T06:01:48;6.03;;;4.40;;
32932;SDS011;19444;50.518;10.870;2023-07-20T06:04:45;7.50;;;6.38;;
32932;SDS011;19444;50.518;10.870;2023-07-20T06:07:42;6.90;;;6.18;;
32932;SDS011;19444;50.518;10.870;2023-07-20T06:10:39;9.35;;;6.00;;
32932;SDS011;19444;50.518;10.870;2023-07-20T06:13:40;7.78;;;5.35;;
32932;SDS011;19444;50.518;10.870;2023-07-20T06:16:39;7.57;;;5.75;;
32932;SDS011;19444;50.518;10.870;2023-07-20T06:19:36;7.93;;;6.00;;
32932;SDS011;19444;50.518;10.870;2023-07-20T06:22:33;8.55;;;6.40;;
32932;SDS011;19444;50.518;10.870;2023-07-20T06:25:30;8.38;;;6.72;;
32932;SDS011;19444;50.518;10.870;2023-07-20T06:28:27;7.68;;;5.38;;
32932;SDS011;19444;50.518;10.870;2023-07-20T06:31:24;10.50;;;6.25;;
32932;SDS011;19444;50.518;10.870;2023-07-20T06:34:21;8.68;;;6.80;;
32932;SDS011;19444;50.518;10.870;2023-07-20T06:37:19;9.40;;;5.88;;
32932;SDS011;19444;50.518;10.870;2023-07-20T06:40:16;8.90;;;5.68;;
32932;SDS011;19444;50.518;10.870;2023-07-20T06:43:16;9.02;;;6.22;;
32932;SDS011;19444;50.518;10.870;2023-07-20T06:46:16;7.93;;;6.03;;
32932;SDS011;19444;50.518;10.870;2023-07-20T06:49:23;10.15;;;6.20;;
32932;SDS011;19444;50.518;10.870;2023-07-20T06:52:24;8.48;;;5.28;;
32932;SDS011;19444;50.518;10.870;2023-07-20T06:55:21;13.63;;;7.43;;
32932;SDS011;19444;50.518;10.870;2023-07-20T06:58:19;9.30;;;6.60;;
32932;SDS011;19444;50.518;10.870;2023-07-20T07:01:17;8.65;;;6.25;;
32932;SDS011;19444;50.518;10.870;2023-07-20T07:04:15;6.93;;;5.97;;
32932;SDS011;19444;50.518;10.870;2023-07-20T07:07:15;8.57;;;5.50;;
32932;SDS011;19444;50.518;10.870;2023-07-20T07:10:22;10.13;;;5.40;;
32932;SDS011;19444;50.518;10.870;2023-07-20T07:13:19;7.18;;;5.30;;
32932;SDS011;19444;50.518;10.870;2023-07-20T07:16:16;6.65;;;5.50;;
32932;SDS011;19444;50.518;10.870;2023-07-20T07:19:16;6.85;;;5.25;;
32932;SDS011;19444;50.518;10.870;2023-07-20T07:22:13;6.85;;;4.47;;
32932;SDS011;19444;50.518;10.870;2023-07-20T07:25:10;7.88;;;5.32;;
32932;SDS011;19444;50.518;10.870;2023-07-20T07:28:07;5.60;;;4.55;;
32932;SDS011;19444;50.518;10.870;2023-07-20T07:31:04;6.45;;;4.40;;
32932;SDS011;19444;50.518;10.870;2023-07-20T07:34:02;6.15;;;4.93;;
32932;SDS011;19444;50.518;10.870;2023-07-20T07:36:59;6.10;;;4.78;;
32932;SDS011;19444;50.518;10.870;2023-07-20T07:39:56;8.35;;;4.50;;
32932;SDS011;19444;50.518;10.870;2023-07-20T07:42:53;5.55;;;4.10;;
32932;SDS011;19444;50.518;10.870;2023-07-20T07:45:53;5.80;;;3.80;;
32932;SDS011;19444;50.518;10.870;2023-07-20T07:48:50;6.47;;;4.73;;
32932;SDS011;19444;50.518;10.870;2023-07-20T07:51:47;6.72;;;4.22;;
32932;SDS011;19444;50.518;10.870;2023-07-20T07:54:44;7.32;;;4.10;;
32932;SDS011;19444;50.518;10.870;2023-07-20T07:57:41;6.15;;;4.13;;
32932;SDS011;19444;50.518;10.870;2023-07-20T08:00:38;7.00;;;3.78;;
32932;SDS011;19444;50.518;10.870;2023-07-20T08:03:35;5.18;;;3.53;;
32932;SDS011;19444;50.518;10.870;2023-07-20T08:06:33;4.78;;;3.67;;
32932;SDS011;19444;50.518;10.870;2023-07-20T08:09:30;6.50;;;3.25;;
32932;SDS011;19444;50.518;10.870;2023-07-20T08:12:27;6.00;;;3.50;;
32932;SDS011;19444;50.518;10.870;2023-07-20T08:15:24;4.10;;;3.08;;
32932;SDS011;19444;50.518;10.870;2023-07-20T08:18:21;5.82;;;2.97;;
32932;SDS011;19444;50.518;10.870;2023-07-20T08:21:18;3.38;;;2.60;;
32932;SDS011;19444;50.518;10.870;2023-07-20T08:24:15;4.28;;;2.20;;
32932;SDS011;19444;50.518;10.870;2023-07-20T08:27:12;4.00;;;2.65;;
32932;SDS011;19444;50.518;10.870;2023-07-20T08:30:09;6.15;;;2.78;;
32932;SDS011;19444;50.518;10.870;2023-07-20T08:33:06;4.10;;;2.63;;
32932;SDS011;19444;50.518;10.870;2023-07-20T08:36:03;4.03;;;2.47;;
32932;SDS011;19444;50.518;10.870;2023-07-20T08:39:02;4.07;;;2.17;;
32932;SDS011;19444;50.518;10.870;2023-07-20T08:42:00;2.97;;;2.10;;
32932;SDS011;19444;50.518;10.870;2023-07-20T08:45:00;3.33;;;1.90;;
32932;SDS011;19444;50.518;10.870;2023-07-20T08:48:00;3.60;;;2.55;;
32932;SDS011;19444;50.518;10.870;2023-07-20T08:50:59;4.97;;;3.05;;
32932;SDS011;19444;50.518;10.870;2023-07-20T08:53:58;2.72;;;2.45;;
32932;SDS011;19444;50.518;10.870;2023-07-20T08:56:56;4.38;;;2.70;;
32932;SDS011;19444;50.518;10.870;2023-07-20T08:59:57;4.00;;;2.65;;
32932;SDS011;19444;50.518;10.870;2023-07-20T09:02:55;4.32;;;2.88;;
32932;SDS011;19444;50.518;10.870;2023-07-20T09:05:53;4.18;;;2.83;;
32932;SDS011;19444;50.518;10.870;2023-07-20T09:08:50;5.57;;;3.03;;
32932;SDS011;19444;50.518;10.870;2023-07-20T09:11:48;7.05;;;3.55;;
32932;SDS011;19444;50.518;10.870;2023-07-20T09:14:46;4.82;;;3.38;;
32932;SDS011;19444;50.518;10.870;2023-07-20T09:17:46;4.07;;;2.90;;
32932;SDS011;19444;50.518;10.870;2023-07-20T09:20:45;4.72;;;3.10;;
32932;SDS011;19444;50.518;10.870;2023-07-20T09:23:42;4.00;;;3.10;;
32932;SDS011;19444;50.518;10.870;2023-07-20T09:26:42;4.38;;;2.92;;
32932;SDS011;19444;50.518;10.870;2023-07-20T09:29:49;5.90;;;3.30;;
32932;SDS011;19444;50.518;10.870;2023-07-20T09:32:48;5.00;;;3.38;;
32932;SDS011;19444;50.518;10.870;2023-07-20T09:35:50;2.95;;;2.53;;
32932;SDS011;19444;50.518;10.870;2023-07-20T09:38:51;3.55;;;2.28;;
32932;SDS011;19444;50.518;10.870;2023-07-20T09:41:51;3.10;;;2.60;;
32932;SDS011;19444;50.518;10.870;2023-07-20T09:45:08;4.13;;;1.92;;
32932;SDS011;19444;50.518;10.870;2023-07-20T09:48:06;2.90;;;1.80;;
32932;SDS011;19444;50.518;10.870;2023-07-20T09:51:10;2.47;;;1.90;;
32932;SDS011;19444;50.518;10.870;2023-07-20T09:54:07;2.70;;;1.98;;
32932;SDS011;19444;50.518;10.870;2023-07-20T09:57:08;3.75;;;2.10;;
32932;SDS011;19444;50.518;10.870;2023-07-20T10:00:08;3.05;;;2.10;;
32932;SDS011;19444;50.518;10.870;2023-07-20T10:03:14;3.58;;;1.80;;
32932;SDS011;19444;50.518;10.870;2023-07-20T10:06:18;2.67;;;1.65;;
32932;SDS011;19444;50.518;10.870;2023-07-20T10:09:25;3.00;;;1.80;;
32932;SDS011;19444;50.518;10.870;2023-07-20T10:12:23;3.13;;;1.63;;
32932;SDS011;19444;50.518;10.870;2023-07-20T10:15:30;2.55;;;1.98;;
32932;SDS011;19444;50.518;10.870;2023-07-20T10:22:10;2.97;;;1.83;;
32932;SDS011;19444;50.518;10.870;2023-07-20T10:25:12;3.45;;;2.30;;
32932;SDS011;19444;50.518;10.870;2023-07-20T10:28:10;2.63;;;1.98;;
32932;SDS011;19444;50.518;10.870;2023-07-20T10:31:11;4.95;;;2.53;;
32932;SDS011;19444;50.518;10.870;2023-07-20T10:34:09;2.78;;;1.98;;
32932;SDS011;19444;50.518;10.870;2023-07-20T10:37:07;3.33;;;2.40;;
32932;SDS011;19444;50.518;10.870;2023-07-20T10:43:24;4.10;;;1.77;;
32932;SDS011;19444;50.518;10.870;2023-07-20T10:49:35;3.28;;;2.00;;
32932;SDS011;19444;50.518;10.870;2023-07-20T10:53:13;2.47;;;1.73;;
32932;SDS011;19444;50.518;10.870;2023-07-20T10:56:12;3.28;;;1.90;;
32932;SDS011;19444;50.518;10.870;2023-07-20T10:59:18;4.40;;;2.70;;
32932;SDS011;19444;50.518;10.870;2023-07-20T11:02:23;2.63;;;2.03;;
32932;SDS011;19444;50.518;10.870;2023-07-20T11:05:37;3.13;;;2.10;;
32932;SDS011;19444;50.518;10.870;2023-07-20T11:08:39;5.93;;;2.03;;
32932;SDS011;19444;50.518;10.870;2023-07-20T11:11:43;2.83;;;1.67;;
32932;SDS011;19444;50.518;10.870;2023-07-20T11:14:54;3.60;;;1.95;;
32932;SDS011;19444;50.518;10.870;2023-07-20T11:17:53;2.70;;;2.28;;
32932;SDS011;19444;50.518;10.870;2023-07-20T11:21:08;3.22;;;2.38;;
32932;SDS011;19444;50.518;10.870;2023-07-20T11:24:07;3.60;;;2.20;;
32932;SDS011;19444;50.518;10.870;2023-07-20T11:27:05;3.55;;;2.50;;
32932;SDS011;19444;50.518;10.870;2023-07-20T11:30:02;4.15;;;2.38;;
32932;SDS011;19444;50.518;10.870;2023-07-20T11:33:00;2.60;;;1.77;;
32932;SDS011;19444;50.518;10.870;2023-07-20T11:35:57;4.30;;;1.88;;
32932;SDS011;19444;50.518;10.870;2023-07-20T11:38:54;3.08;;;2.00;;
32932;SDS011;19444;50.518;10.870;2023-07-20T11:41:52;3.03;;;1.88;;
32932;SDS011;19444;50.518;10.870;2023-07-20T11:44:53;2.05;;;1.77;;
32932;SDS011;19444;50.518;10.870;2023-07-20T11:47:51;2.10;;;1.67;;
32932;SDS011;19444;50.518;10.870;2023-07-20T11:50:48;3.10;;;1.90;;
32932;SDS011;19444;50.518;10.870;2023-07-20T11:53:45;2.55;;;1.85;;
32932;SDS011;19444;50.518;10.870;2023-07-20T11:56:43;3.00;;;2.00;;
32932;SDS011;19444;50.518;10.870;2023-07-20T11:59:53;3.78;;;1.95;;
32932;SDS011;19444;50.518;10.870;2023-07-20T12:02:57;2.30;;;1.90;;
32932;SDS011;19444;50.518;10.870;2023-07-20T12:05:54;3.50;;;2.35;;
32932;SDS011;19444;50.518;10.870;2023-07-20T12:08:57;3.70;;;2.42;;
32932;SDS011;19444;50.518;10.870;2023-07-20T12:11:55;3.75;;;2.22;;
32932;SDS011;19444;50.518;10.870;2023-07-20T12:14:52;3.83;;;2.80;;
32932;SDS011;19444;50.518;10.870;2023-07-20T12:17:49;3.60;;;2.58;;
32932;SDS011;19444;50.518;10.870;2023-07-20T12:20:49;4.05;;;2.60;;
32932;SDS011;19444;50.518;10.870;2023-07-20T12:23:56;3.50;;;2.70;;
32932;SDS011;19444;50.518;10.870;2023-07-20T12:26:57;4.25;;;2.40;;
32932;SDS011;19444;50.518;10.870;2023-07-20T12:29:54;3.20;;;2.33;;
32932;SDS011;19444;50.518;10.870;2023-07-20T12:32:53;3.80;;;2.58;;
32932;SDS011;19444;50.518;10.870;2023-07-20T12:35:50;2.83;;;2.30;;
32932;SDS011;19444;50.518;10.870;2023-07-20T12:38:51;4.05;;;2.10;;
32932;SDS011;19444;50.518;10.870;2023-07-20T12:41:48;4.05;;;2.10;;
32932;SDS011;19444;50.518;10.870;2023-07-20T12:44:45;2.95;;;2.30;;
32932;SDS011;19444;50.518;10.870;2023-07-20T12:47:43;3.53;;;2.38;;
32932;SDS011;19444;50.518;10.870;2023-07-20T12:50:40;3.00;;;1.80;;
32932;SDS011;19444;50.518;10.870;2023-07-20T12:53:37;3.38;;;2.30;;
32932;SDS011;19444;50.518;10.870;2023-07-20T12:56:35;2.42;;;2.00;;
32932;SDS011;19444;50.518;10.870;2023-07-20T12:59:35;2.53;;;2.10;;
32932;SDS011;19444;50.518;10.870;2023-07-20T13:02:32;2.70;;;1.85;;
32932;SDS011;19444;50.518;10.870;2023-07-20T13:05:29;4.85;;;2.15;;
32932;SDS011;19444;50.518;10.870;2023-07-20T13:08:31;2.25;;;1.88;;
32932;SDS011;19444;50.518;10.870;2023-07-20T13:11:28;3.25;;;2.35;;
32932;SDS011;19444;50.518;10.870;2023-07-20T13:14:24;4.80;;;2.20;;
32932;SDS011;19444;50.518;10.870;2023-07-20T13:17:24;2.60;;;2.28;;
32932;SDS011;19444;50.518;10.870;2023-07-20T13:20:21;3.65;;;2.35;;
32932;SDS011;19444;50.518;10.870;2023-07-20T13:23:18;3.97;;;2.40;;
32932;SDS011;19444;50.518;10.870;2023-07-20T13:26:15;2.67;;;2.30;;
32932;SDS011;19444;50.518;10.870;2023-07-20T13:29:13;3.85;;;2.22;;
32932;SDS011;19444;50.518;10.870;2023-07-20T13:32:10;2.58;;;2.25;;
32932;SDS011;19444;50.518;10.870;2023-07-20T13:35:07;4.43;;;2.50;;
32932;SDS011;19444;50.518;10.870;2023-07-20T13:38:04;3.00;;;2.15;;
32932;SDS011;19444;50.518;10.870;2023-07-20T13:41:01;3.45;;;2.33;;
32932;SDS011;19444;50.518;10.870;2023-07-20T13:43:58;2.20;;;1.98;;
32932;SDS011;19444;50.518;10.870;2023-07-20T13:46:55;1.67;;;1.58;;
32932;SDS011;19444;50.518;10.870;2023-07-20T13:50:12;2.75;;;2.00;;
32932;SDS011;19444;50.518;10.870;2023-07-20T13:53:22;2.43;;;1.77;;
32932;SDS011;19444;50.518;10.870;2023-07-20T13:56:22;2.30;;;1.87;;
32932;SDS011;19444;50.518;10.870;2023-07-20T13:59:20;4.32;;;2.47;;
32932;SDS011;19444;50.518;10.870;2023-07-20T14:02:17;2.40;;;2.05;;
32932;SDS011;19444;50.518;10.870;2023-07-20T14:05:17;2.93;;;1.93;;
32932;SDS011;19444;50.518;10.870;2023-07-20T14:08:18;3.63;;;1.83;;
32932;SDS011;19444;50.518;10.870;2023-07-20T14:11:15;2.42;;;2.22;;
32932;SDS011;19444;50.518;10.870;2023-07-20T14:17:12;2.38;;;1.80;;
32932;SDS011;19444;50.518;10.870;2023-07-20T14:20:09;3.08;;;1.75;;
32932;SDS011;19444;50.518;10.870;2023-07-20T14:26:07;3.78;;;2.38;;
32932;SDS011;19444;50.518;10.870;2023-07-20T14:29:17;2.78;;;2.30;;
32932;SDS011;19444;50.518;10.870;2023-07-20T14:32:15;2.83;;;2.45;;
32932;SDS011;19444;50.518;10.870;2023-07-20T14:35:12;3.90;;;2.25;;
32932;SDS011;19444;50.518;10.870;2023-07-20T14:38:09;2.53;;;1.98;;
32932;SDS011;19444;50.518;10.870;2023-07-20T14:41:06;3.63;;;1.80;;
32932;SDS011;19444;50.518;10.870;2023-07-20T14:44:03;2.90;;;1.90;;
32932;SDS011;19444;50.518;10.870;2023-07-20T14:47:01;2.40;;;2.00;;
32932;SDS011;19444;50.518;10.870;2023-07-20T14:50:10;2.75;;;2.40;;
32932;SDS011;19444;50.518;10.870;2023-07-20T14:53:07;2.55;;;2.20;;
32932;SDS011;19444;50.518;10.870;2023-07-20T14:56:05;3.30;;;1.80;;
32932;SDS011;19444;50.518;10.870;2023-07-20T14:59:03;3.33;;;1.95;;
32932;SDS011;19444;50.518;10.870;2023-07-20T15:02:02;2.40;;;2.20;;
32932;SDS011;19444;50.518;10.870;2023-07-20T15:04:59;2.40;;;2.03;;
32932;SDS011;19444;50.518;10.870;2023-07-20T15:07:56;2.75;;;2.13;;
32932;SDS011;19444;50.518;10.870;2023-07-20T15:10:53;3.75;;;2.30;;
32932;SDS011;19444;50.518;10.870;2023-07-20T15:13:49;3.35;;;2.00;;
32932;SDS011;19444;50.518;10.870;2023-07-20T15:16:47;2.10;;;1.90;;
32932;SDS011;19444;50.518;10.870;2023-07-20T15:19:45;2.30;;;2.00;;
32932;SDS011;19444;50.518;10.870;2023-07-20T15:22:42;3.25;;;1.80;;
32932;SDS011;19444;50.518;10.870;2023-07-20T15:25:42;2.30;;;2.10;;
32932;SDS011;19444;50.518;10.870;2023-07-20T15:28:39;2.85;;;2.30;;
32932;SDS011;19444;50.518;10.870;2023-07-20T15:31:37;4.95;;;2.42;;
32932;SDS011;19444;50.518;10.870;2023-07-20T15:34:37;2.70;;;2.20;;
32932;SDS011;19444;50.518;10.870;2023-07-20T15:37:34;2.83;;;1.73;;
32932;SDS011;19444;50.518;10.870;2023-07-20T15:40:32;2.63;;;1.77;;
32932;SDS011;19444;50.518;10.870;2023-07-20T15:43:29;1.95;;;1.75;;
32932;SDS011;19444;50.518;10.870;2023-07-20T15:46:43;3.40;;;1.90;;
32932;SDS011;19444;50.518;10.870;2023-07-20T15:49:44;2.65;;;2.00;;
32932;SDS011;19444;50.518;10.870;2023-07-20T15:52:42;2.47;;;1.98;;
32932;SDS011;19444;50.518;10.870;2023-07-20T15:55:39;3.20;;;1.95;;
32932;SDS011;19444;50.518;10.870;2023-07-20T15:58:37;2.15;;;1.65;;
32932;SDS011;19444;50.518;10.870;2023-07-20T16:01:34;2.58;;;1.63;;
32932;SDS011;19444;50.518;10.870;2023-07-20T16:04:33;2.42;;;1.95;;
32932;SDS011;19444;50.518;10.870;2023-07-20T16:07:30;2.88;;;1.40;;
32932;SDS011;19444;50.518;10.870;2023-07-20T16:10:28;2.63;;;2.00;;
32932;SDS011;19444;50.518;10.870;2023-07-20T16:13:24;2.08;;;1.60;;
32932;SDS011;19444;50.518;10.870;2023-07-20T16:16:22;2.38;;;1.92;;
32932;SDS011;19444;50.518;10.870;2023-07-20T16:19:19;2.88;;;1.88;;
32932;SDS011;19444;50.518;10.870;2023-07-20T16:22:21;2.08;;;1.60;;
32932;SDS011;19444;50.518;10.870;2023-07-20T16:25:18;2.50;;;1.45;;
32932;SDS011;19444;50.518;10.870;2023-07-20T16:28:15;2.13;;;1.77;;
32932;SDS011;19444;50.518;10.870;2023-07-20T16:31:12;2.17;;;1.55;;
32932;SDS011;19444;50.518;10.870;2023-07-20T16:34:10;2.53;;;1.70;;
32932;SDS011;19444;50.518;10.870;2023-07-20T16:37:07;2.80;;;1.80;;
32932;SDS011;19444;50.518;10.870;2023-07-20T16:40:24;2.58;;;1.70;;
32932;SDS011;19444;50.518;10.870;2023-07-20T16:43:24;2.25;;;1.67;;
32932;SDS011;19444;50.518;10.870;2023-07-20T16:46:23;1.73;;;1.42;;
32932;SDS011;19444;50.518;10.870;2023-07-20T16:49:23;1.80;;;1.33;;
32932;SDS011;19444;50.518;10.870;2023-07-20T16:52:25;1.77;;;1.52;;
32932;SDS011;19444;50.518;10.870;2023-07-20T16:55:22;1.67;;;1.40;;
32932;SDS011;19444;50.518;10.870;2023-07-20T16:58:22;1.80;;;1.40;;
32932;SDS011;19444;50.518;10.870;2023-07-20T17:01:21;2.78;;;1.55;;
32932;SDS011;19444;50.518;10.870;2023-07-20T17:04:18;1.58;;;1.33;;
32932;SDS011;19444;50.518;10.870;2023-07-20T17:07:16;1.60;;;1.40;;
32932;SDS011;19444;50.518;10.870;2023-07-20T17:10:13;3.47;;;1.65;;
32932;SDS011;19444;50.518;10.870;2023-07-20T17:13:10;2.83;;;1.23;;
32932;SDS011;19444;50.518;10.870;2023-07-20T17:16:07;1.63;;;1.42;;
32932;SDS011;19444;50.518;10.870;2023-07-20T17:19:04;2.05;;;1.55;;
32932;SDS011;19444;50.518;10.870;2023-07-20T17:22:04;2.67;;;1.60;;
32932;SDS011;19444;50.518;10.870;2023-07-20T17:25:01;3.00;;;1.67;;
32932;SDS011;19444;50.518;10.870;2023-07-20T17:28:01;2.83;;;1.73;;
32932;SDS011;19444;50.518;10.870;2023-07-20T17:31:01;1.85;;;1.30;;
32932;SDS011;19444;50.518;10.870;2023-07-20T17:33:58;1.80;;;1.33;;
32932;SDS011;19444;50.518;10.870;2023-07-20T17:36:55;2.63;;;1.55;;
32932;SDS011;19444;50.518;10.870;2023-07-20T17:39:55;1.77;;;1.40;;
32932;SDS011;19444;50.518;10.870;2023-07-20T17:42:55;1.70;;;1.40;;
32932;SDS011;19444;50.518;10.870;2023-07-20T17:45:55;1.98;;;1.40;;
32932;SDS011;19444;50.518;10.870;2023-07-20T17:49:12;2.55;;;1.80;;
32932;SDS011;19444;50.518;10.870;2023-07-20T17:52:09;1.98;;;1.30;;
32932;SDS011;19444;50.518;10.870;2023-07-20T17:55:06;1.50;;;1.30;;
32932;SDS011;19444;50.518;10.870;2023-07-20T17:58:05;1.92;;;1.60;;
32932;SDS011;19444;50.518;10.870;2023-07-20T18:01:02;3.10;;;1.42;;
32932;SDS011;19444;50.518;10.870;2023-07-20T18:03:59;1.30;;;1.20;;
32932;SDS011;19444;50.518;10.870;2023-07-20T18:06:56;1.65;;;1.30;;
32932;SDS011;19444;50.518;10.870;2023-07-20T18:09:53;4.03;;;1.80;;